Time;durP1;ratioP1;P1;durP2;ratioP2;P2;SDS_P1;SDS_P2;PMS_P1;PMS_P2;Temp;Humidity;BMP_temperature;BMP_pressure;BME280_temperature;BME280_humidity;BME280_pressure;Samples;Min_cycle;Max_cycle;Signal;HPM_P1;HPM_P2
2023/07/27 00:00:08;;;;;;;3.42;1.60;;;;;;;;;;5071098;28;20048;-74
2023/07/27 00:02:35;;;;;;;6.43;2.17;;;;;;;;;;5067299;28;20528;-74
2023/07/27 00:05:01;;;;;;;3.67;1.80;;;;;;;;;;5069800;28;20032;-74
2023/07/27 00:07:27;;;;;;;2.95;1.85;;;;;;;;;;5071118;28;20423;-73
2023/07/27 00:09:53;;;;;;;4.60;1.90;;;;;;;;;;5071209;28;20025;-73
2023/07/27 00:12:19;;;;;;;4.43;1.95;;;;;;;;;;5071232;28;20025;-73
2023/07/27 00:14:45;;;;;;;6.20;2.50;;;;;;;;;;5069148;28;20020;-74
2023/07/27 00:17:11;;;;;;;4.18;2.20;;;;;;;;;;5070285;28;20534;-74
2023/07/27 00:19:37;;;;;;;4.35;2.20;;;;;;;;;;5071807;28;20105;-73
2023/07/27 00:22:03;;;;;;;6.95;2.38;;;;;;;;;;5071353;28;20391;-72
2023/07/27 00:24:29;;;;;;;6.18;1.90;;;;;;;;;;5072607;28;20035;-73
2023/07/27 00:26:55;;;;;;;5.40;2.25;;;;;;;;;;5073040;28;20025;-73
2023/07/27 00:29:21;;;;;;;4.13;2.67;;;;;;;;;;5071124;28;20020;-73
2023/07/27 00:31:47;;;;;;;4.10;2.38;;;;;;;;;;5073979;28;20074;-74
2023/07/27 00:34:13;;;;;;;7.20;2.90;;;;;;;;;;5077050;28;20050;-76
2023/07/27 00:36:39;;;;;;;7.63;3.10;;;;;;;;;;5076963;28;20085;-75
2023/07/27 00:39:05;;;;;;;8.60;3.45;;;;;;;;;;5076501;28;20470;-73
2023/07/27 00:41:31;;;;;;;14.73;3.40;;;;;;;;;;5077657;28;20036;-73
2023/07/27 00:43:57;;;;;;;8.23;3.38;;;;;;;;;;5074677;28;20055;-72
2023/07/27 00:46:23;;;;;;;8.75;4.15;;;;;;;;;;5074811;28;20051;-75
2023/07/27 00:48:49;;;;;;;7.22;3.50;;;;;;;;;;5074661;28;20025;-73
2023/07/27 00:51:15;;;;;;;8.95;3.63;;;;;;;;;;5074751;28;20031;-74
2023/07/27 00:53:41;;;;;;;10.55;3.92;;;;;;;;;;5074428;28;20032;-74
2023/07/27 00:56:07;;;;;;;7.28;3.67;;;;;;;;;;5074957;28;20029;-74
2023/07/27 00:58:33;;;;;;;8.65;3.53;;;;;;;;;;5074667;28;20504;-73
2023/07/27 01:01:02;;;;;;;7.55;3.70;;;;;;;;;;5074590;28;20119;-73
2023/07/27 01:03:28;;;;;;;8.40;3.85;;;;;;;;;;5074216;28;20025;-73
2023/07/27 01:05:54;;;;;;;7.18;4.00;;;;;;;;;;5074498;28;20493;-74
2023/07/27 01:08:20;;;;;;;6.80;4.20;;;;;;;;;;5074428;28;20017;-74
2023/07/27 01:11:00;;;;;;;6.70;3.80;;;;;;;;;;5073466;28;20463;-74
2023/07/27 01:13:35;;;;;;;10.77;4.70;;;;;;;;;;5074099;28;20124;-73
2023/07/27 01:16:05;;;;;;;8.20;4.38;;;;;;;;;;5074395;28;20029;-72
2023/07/27 01:18:36;;;;;;;11.60;4.80;;;;;;;;;;5074417;28;20025;-73
2023/07/27 01:21:10;;;;;;;8.43;4.45;;;;;;;;;;5074310;28;20025;-72
2023/07/27 01:23:39;;;;;;;10.05;4.20;;;;;;;;;;5073816;28;20024;-73
2023/07/27 01:26:25;;;;;;;10.45;5.20;;;;;;;;;;5074125;28;20051;-72
2023/07/27 01:29:09;;;;;;;11.35;4.90;;;;;;;;;;5074038;28;20028;-73
2023/07/27 01:31:41;;;;;;;12.18;4.70;;;;;;;;;;5074127;28;20028;-74
2023/07/27 01:34:11;;;;;;;13.73;5.75;;;;;;;;;;5077689;28;20031;-75
2023/07/27 01:36:38;;;;;;;10.55;5.25;;;;;;;;;;5080279;28;20031;-75
2023/07/27 01:39:06;;;;;;;10.02;5.10;;;;;;;;;;5081843;28;20032;-74
2023/07/27 01:41:33;;;;;;;12.52;4.70;;;;;;;;;;5077813;28;20438;-73
2023/07/27 01:43:59;;;;;;;15.20;5.25;;;;;;;;;;5073725;28;20020;-73
2023/07/27 01:46:27;;;;;;;12.52;5.70;;;;;;;;;;5073668;28;20058;-74
2023/07/27 01:48:55;;;;;;;11.80;5.57;;;;;;;;;;5073708;28;20025;-74
2023/07/27 01:51:22;;;;;;;14.35;5.53;;;;;;;;;;5073815;28;20028;-73
2023/07/27 01:53:48;;;;;;;13.23;5.32;;;;;;;;;;5072109;28;20020;-73
2023/07/27 01:56:15;;;;;;;10.73;4.97;;;;;;;;;;5073574;28;20021;-72
2023/07/27 01:58:42;;;;;;;12.30;5.82;;;;;;;;;;5073574;28;20493;-73
2023/07/27 02:01:08;;;;;;;13.63;5.88;;;;;;;;;;5073438;28;20032;-74
2023/07/27 02:03:34;;;;;;;12.65;6.07;;;;;;;;;;5073180;28;20024;-73
2023/07/27 02:06:00;;;;;;;12.88;6.28;;;;;;;;;;5073187;28;20474;-73
2023/07/27 02:08:26;;;;;;;12.25;5.32;;;;;;;;;;5073421;28;20016;-73
2023/07/27 02:10:56;;;;;;;12.88;6.30;;;;;;;;;;5070746;28;20174;-73
2023/07/27 02:13:24;;;;;;;16.95;6.68;;;;;;;;;;5072636;28;20020;-73
2023/07/27 02:15:59;;;;;;;13.18;6.30;;;;;;;;;;5073069;28;20021;-74
2023/07/27 02:18:27;;;;;;;16.77;6.32;;;;;;;;;;5072935;28;20025;-73
2023/07/27 02:20:54;;;;;;;14.77;6.90;;;;;;;;;;5073110;28;20020;-74
2023/07/27 02:23:21;;;;;;;15.57;6.68;;;;;;;;;;5072256;28;20100;-73
2023/07/27 02:25:47;;;;;;;18.27;7.40;;;;;;;;;;5072796;28;20039;-73
2023/07/27 02:28:13;;;;;;;16.70;6.97;;;;;;;;;;5072586;28;20028;-73
2023/07/27 02:30:39;;;;;;;19.90;7.35;;;;;;;;;;5072938;28;20028;-75
2023/07/27 02:33:06;;;;;;;15.93;7.22;;;;;;;;;;5072139;28;20104;-74
2023/07/27 02:35:32;;;;;;;17.73;7.60;;;;;;;;;;5072832;28;20024;-75
2023/07/27 02:37:58;;;;;;;17.77;7.20;;;;;;;;;;5072621;28;20032;-74
2023/07/27 02:40:24;;;;;;;16.55;7.45;;;;;;;;;;5072498;28;20074;-74
2023/07/27 02:42:50;;;;;;;13.00;7.38;;;;;;;;;;5072374;28;20028;-72
2023/07/27 02:45:16;;;;;;;13.25;7.25;;;;;;;;;;5072412;28;20032;-73
2023/07/27 02:47:42;;;;;;;19.85;7.68;;;;;;;;;;5072295;28;20046;-74
2023/07/27 02:50:08;;;;;;;19.20;7.50;;;;;;;;;;5072307;28;20020;-73
2023/07/27 02:52:34;;;;;;;20.58;8.75;;;;;;;;;;5071844;28;20037;-73
2023/07/27 02:55:00;;;;;;;15.23;7.30;;;;;;;;;;5071945;28;20037;-74
2023/07/27 02:57:27;;;;;;;17.48;8.70;;;;;;;;;;5071984;28;20032;-73
2023/07/27 02:59:53;;;;;;;17.58;8.10;;;;;;;;;;5071956;28;20055;-73
2023/07/27 03:02:19;;;;;;;20.50;7.80;;;;;;;;;;5071553;28;20028;-73
2023/07/27 03:04:45;;;;;;;17.55;7.43;;;;;;;;;;5071693;28;20033;-73
2023/07/27 03:07:11;;;;;;;16.67;8.45;;;;;;;;;;5072035;28;20040;-72
2023/07/27 03:09:37;;;;;;;14.30;8.27;;;;;;;;;;5071924;28;20028;-74
2023/07/27 03:12:04;;;;;;;15.00;8.00;;;;;;;;;;5071537;28;20078;-72
2023/07/27 03:14:30;;;;;;;17.35;7.80;;;;;;;;;;5071829;28;20043;-75
2023/07/27 03:16:56;;;;;;;13.27;7.88;;;;;;;;;;5073082;28;20023;-73
2023/07/27 03:19:22;;;;;;;18.30;8.13;;;;;;;;;;5072290;28;20505;-73
2023/07/27 03:21:48;;;;;;;20.13;8.95;;;;;;;;;;5071158;28;20028;-72
2023/07/27 03:24:16;;;;;;;17.05;8.65;;;;;;;;;;5071620;28;20032;-74
2023/07/27 03:26:43;;;;;;;17.75;8.07;;;;;;;;;;5071561;28;20044;-72
2023/07/27 03:29:09;;;;;;;18.55;8.15;;;;;;;;;;5071362;28;20021;-73
2023/07/27 03:31:35;;;;;;;19.23;8.30;;;;;;;;;;5071560;28;20021;-73
2023/07/27 03:34:01;;;;;;;18.70;8.95;;;;;;;;;;5070879;28;20019;-74
2023/07/27 03:36:27;;;;;;;16.23;8.65;;;;;;;;;;5071765;28;20371;-72
2023/07/27 03:38:52;;;;;;;19.13;8.88;;;;;;;;;;5071475;28;20130;-74
2023/07/27 03:41:18;;;;;;;19.85;8.75;;;;;;;;;;5071858;28;20042;-73
2023/07/27 03:43:44;;;;;;;15.98;8.05;;;;;;;;;;5071295;28;20535;-72
2023/07/27 03:46:10;;;;;;;18.48;9.13;;;;;;;;;;5071473;28;20115;-71
2023/07/27 03:48:36;;;;;;;17.13;7.95;;;;;;;;;;5071389;28;20302;-72
2023/07/27 03:51:03;;;;;;;20.65;9.25;;;;;;;;;;5071421;28;20018;-71
2023/07/27 03:53:29;;;;;;;17.25;8.13;;;;;;;;;;5070997;28;20025;-71
2023/07/27 03:55:55;;;;;;;16.52;8.05;;;;;;;;;;5071374;28;20050;-72
2023/07/27 03:58:21;;;;;;;21.33;8.90;;;;;;;;;;5071376;28;20020;-71
2023/07/27 04:00:47;;;;;;;17.23;8.20;;;;;;;;;;5071760;28;20028;-72
2023/07/27 04:03:13;;;;;;;18.35;8.80;;;;;;;;;;5070976;28;20023;-70
2023/07/27 04:05:39;;;;;;;16.40;7.97;;;;;;;;;;5068254;28;20028;-73
2023/07/27 04:08:05;;;;;;;17.95;8.75;;;;;;;;;;5071548;28;20116;-74
2023/07/27 04:10:31;;;;;;;17.00;8.35;;;;;;;;;;5074731;28;20028;-72
2023/07/27 04:12:58;;;;;;;16.00;8.13;;;;;;;;;;5068935;28;20115;-74
2023/07/27 04:15:24;;;;;;;20.52;8.45;;;;;;;;;;5071150;28;20048;-74
2023/07/27 04:17:50;;;;;;;19.40;8.63;;;;;;;;;;5071108;28;20029;-74
2023/07/27 04:20:16;;;;;;;18.83;9.32;;;;;;;;;;5073635;28;20029;-73
2023/07/27 04:22:42;;;;;;;19.20;8.07;;;;;;;;;;5058694;28;20021;-71
2023/07/27 04:25:08;;;;;;;19.55;7.82;;;;;;;;;;5071187;28;20475;-71
2023/07/27 04:27:34;;;;;;;16.90;8.55;;;;;;;;;;5070968;28;20029;-71
2023/07/27 04:30:00;;;;;;;17.58;8.30;;;;;;;;;;5071160;28;20028;-71
2023/07/27 04:32:27;;;;;;;21.13;8.10;;;;;;;;;;5070607;28;20044;-71
2023/07/27 04:34:52;;;;;;;16.02;7.68;;;;;;;;;;5070968;28;20470;-71
2023/07/27 04:37:20;;;;;;;17.00;8.27;;;;;;;;;;5070856;28;20036;-71
2023/07/27 04:39:46;;;;;;;16.63;8.93;;;;;;;;;;5071028;28;20386;-72
2023/07/27 04:42:12;;;;;;;16.98;9.23;;;;;;;;;;5070695;28;20025;-71
2023/07/27 04:44:38;;;;;;;17.55;8.43;;;;;;;;;;5068763;28;20055;-73
2023/07/27 04:47:04;;;;;;;15.07;7.70;;;;;;;;;;5065254;28;20032;-72
2023/07/27 04:49:30;;;;;;;18.45;8.73;;;;;;;;;;5061240;28;20040;-72
2023/07/27 04:51:56;;;;;;;20.50;8.80;;;;;;;;;;5071843;28;20334;-72
2023/07/27 04:54:23;;;;;;;17.90;8.25;;;;;;;;;;5072168;28;20025;-71
2023/07/27 04:56:49;;;;;;;14.93;8.15;;;;;;;;;;5070387;28;20100;-73
2023/07/27 04:59:15;;;;;;;21.13;9.07;;;;;;;;;;5070706;28;20036;-73
2023/07/27 05:01:41;;;;;;;15.90;7.63;;;;;;;;;;5070655;28;20043;-72
2023/07/27 05:04:07;;;;;;;15.48;8.75;;;;;;;;;;5069969;28;20040;-75
2023/07/27 05:06:34;;;;;;;18.63;9.48;;;;;;;;;;5070488;28;20025;-73
2023/07/27 05:09:00;;;;;;;16.75;8.30;;;;;;;;;;5073078;28;20062;-71
2023/07/27 05:11:27;;;;;;;17.58;8.82;;;;;;;;;;5076678;28;20031;-72
2023/07/27 05:13:53;;;;;;;16.65;8.75;;;;;;;;;;5076489;28;20020;-71
2023/07/27 05:16:19;;;;;;;20.65;9.27;;;;;;;;;;5076005;28;20091;-73
2023/07/27 05:18:45;;;;;;;19.20;8.82;;;;;;;;;;5078773;28;20028;-71
2023/07/27 05:21:10;;;;;;;14.93;7.88;;;;;;;;;;5075222;28;20033;-71
2023/07/27 05:23:36;;;;;;;19.85;9.45;;;;;;;;;;5076970;28;20493;-70
2023/07/27 05:26:03;;;;;;;18.52;9.00;;;;;;;;;;5075166;28;20029;-70
2023/07/27 05:28:29;;;;;;;19.48;9.13;;;;;;;;;;5076180;28;20025;-69
2023/07/27 05:30:55;;;;;;;20.75;8.70;;;;;;;;;;5076483;28;20031;-72
2023/07/27 05:33:21;;;;;;;16.98;8.23;;;;;;;;;;5073900;28;20032;-69
2023/07/27 05:35:48;;;;;;;19.52;9.95;;;;;;;;;;5074677;28;20013;-72
2023/07/27 05:38:14;;;;;;;17.02;8.90;;;;;;;;;;5074330;28;20029;-72
2023/07/27 05:40:40;;;;;;;20.00;9.20;;;;;;;;;;5074072;28;20036;-71
2023/07/27 05:43:06;;;;;;;21.00;9.30;;;;;;;;;;5074027;28;20428;-76
2023/07/27 05:45:32;;;;;;;20.05;9.30;;;;;;;;;;5073940;28;20087;-73
2023/07/27 05:47:58;;;;;;;21.67;9.85;;;;;;;;;;5074089;28;20029;-72
2023/07/27 05:50:25;;;;;;;18.08;9.85;;;;;;;;;;5073592;28;20031;-72
2023/07/27 05:52:52;;;;;;;20.60;9.68;;;;;;;;;;5076903;28;20021;-73
2023/07/27 05:55:18;;;;;;;23.42;9.65;;;;;;;;;;5056953;28;20044;-72
2023/07/27 05:57:44;;;;;;;18.35;9.63;;;;;;;;;;5074576;28;20032;-74
2023/07/27 06:00:10;;;;;;;18.73;9.80;;;;;;;;;;5075439;28;20111;-74
2023/07/27 06:02:36;;;;;;;21.10;9.50;;;;;;;;;;5085187;28;20126;-74
2023/07/27 06:05:02;;;;;;;22.98;11.20;;;;;;;;;;5092500;28;20097;-72
2023/07/27 06:07:28;;;;;;;20.85;10.90;;;;;;;;;;5076589;28;20027;-74
2023/07/27 06:09:54;;;;;;;20.10;11.07;;;;;;;;;;5078184;28;20029;-74
2023/07/27 06:12:20;;;;;;;23.77;10.13;;;;;;;;;;5076652;28;20024;-71
2023/07/27 06:14:46;;;;;;;18.15;9.15;;;;;;;;;;5076771;28;20025;-72
2023/07/27 06:17:12;;;;;;;23.48;9.40;;;;;;;;;;5073669;28;20505;-70
2023/07/27 06:19:38;;;;;;;27.05;10.48;;;;;;;;;;5073563;28;20036;-72
2023/07/27 06:22:04;;;;;;;17.90;9.98;;;;;;;;;;5073570;28;20025;-70
2023/07/27 06:24:30;;;;;;;19.65;9.82;;;;;;;;;;5072714;28;20028;-71
2023/07/27 06:26:56;;;;;;;21.38;10.90;;;;;;;;;;5074051;28;20025;-72
2023/07/27 06:29:22;;;;;;;15.90;9.63;;;;;;;;;;5072854;28;20161;-71
2023/07/27 06:31:48;;;;;;;25.17;9.70;;;;;;;;;;5073975;28;20481;-72
2023/07/27 06:34:14;;;;;;;20.92;10.18;;;;;;;;;;5073399;28;20056;-70
2023/07/27 06:36:40;;;;;;;19.90;8.88;;;;;;;;;;5073832;28;20088;-71
2023/07/27 06:39:07;;;;;;;21.77;10.30;;;;;;;;;;5074494;28;20024;-73
2023/07/27 06:41:33;;;;;;;18.30;9.63;;;;;;;;;;5073005;28;20030;-72
2023/07/27 06:43:59;;;;;;;18.58;8.85;;;;;;;;;;5074314;28;20064;-73
2023/07/27 06:46:26;;;;;;;18.27;9.20;;;;;;;;;;5073092;28;20490;-75
2023/07/27 06:48:52;;;;;;;20.65;9.55;;;;;;;;;;5072416;28;20024;-71
2023/07/27 06:51:18;;;;;;;15.55;9.13;;;;;;;;;;5072583;28;20421;-71
2023/07/27 06:53:44;;;;;;;17.08;9.18;;;;;;;;;;5070793;28;20120;-70
2023/07/27 06:56:11;;;;;;;23.50;8.50;;;;;;;;;;5071456;28;20074;-69
2023/07/27 06:58:37;;;;;;;19.67;9.00;;;;;;;;;;5071091;28;20027;-71
2023/07/27 07:01:03;;;;;;;21.65;9.10;;;;;;;;;;5071147;28;20062;-72
2023/07/27 07:03:29;;;;;;;22.35;9.38;;;;;;;;;;5070699;28;20370;-76
2023/07/27 07:05:55;;;;;;;19.92;8.80;;;;;;;;;;5071060;28;20029;-75
2023/07/27 07:08:21;;;;;;;15.75;8.70;;;;;;;;;;5071339;28;20268;-70
2023/07/27 07:10:47;;;;;;;17.30;9.23;;;;;;;;;;5071621;28;20017;-73
2023/07/27 07:13:13;;;;;;;26.40;9.10;;;;;;;;;;5070353;28;20020;-73
2023/07/27 07:15:39;;;;;;;15.00;7.53;;;;;;;;;;5076959;28;20032;-73
2023/07/27 07:18:05;;;;;;;17.25;8.75;;;;;;;;;;5077869;28;20208;-72
2023/07/27 07:20:31;;;;;;;19.45;8.55;;;;;;;;;;5075254;28;20048;-73
2023/07/27 07:22:57;;;;;;;16.95;8.52;;;;;;;;;;5072841;28;20466;-73
2023/07/27 07:25:23;;;;;;;18.60;8.65;;;;;;;;;;5073815;28;20082;-73
2023/07/27 07:27:49;;;;;;;20.17;8.52;;;;;;;;;;5073279;28;20055;-73
2023/07/27 07:30:15;;;;;;;13.82;7.07;;;;;;;;;;5075756;28;20027;-72
2023/07/27 07:32:41;;;;;;;13.63;7.55;;;;;;;;;;5073995;28;20028;-73
2023/07/27 07:35:07;;;;;;;16.70;8.57;;;;;;;;;;5072574;28;20029;-75
2023/07/27 07:37:33;;;;;;;20.45;8.40;;;;;;;;;;5070857;28;20510;-73
2023/07/27 07:40:00;;;;;;;20.25;8.80;;;;;;;;;;5070385;28;20028;-74
2023/07/27 07:42:26;;;;;;;17.00;7.60;;;;;;;;;;5070242;28;20107;-73
2023/07/27 07:44:52;;;;;;;19.00;7.55;;;;;;;;;;5071564;28;20067;-75
2023/07/27 07:47:18;;;;;;;20.20;8.13;;;;;;;;;;5070442;28;20390;-73
2023/07/27 07:49:44;;;;;;;18.38;8.77;;;;;;;;;;5071128;28;20021;-74
2023/07/27 07:52:10;;;;;;;19.98;7.20;;;;;;;;;;5072037;28;20021;-75
2023/07/27 07:54:36;;;;;;;18.10;8.02;;;;;;;;;;5073060;28;20594;-76
2023/07/27 07:57:02;;;;;;;23.88;8.20;;;;;;;;;;5071905;28;20059;-74
2023/07/27 07:59:28;;;;;;;41.28;10.70;;;;;;;;;;5073650;28;20051;-73
2023/07/27 08:01:54;;;;;;;27.40;9.57;;;;;;;;;;5072575;28;20035;-74
2023/07/27 08:04:20;;;;;;;19.50;7.70;;;;;;;;;;5080855;28;20025;-72
2023/07/27 08:06:46;;;;;;;12.45;7.13;;;;;;;;;;5071488;28;20469;-74
2023/07/27 08:09:12;;;;;;;25.52;8.55;;;;;;;;;;5071588;28;20367;-73
2023/07/27 08:11:41;;;;;;;21.13;7.90;;;;;;;;;;5058830;28;20021;-74
2023/07/27 08:14:07;;;;;;;16.88;7.15;;;;;;;;;;5054888;28;20017;-73
2023/07/27 08:16:33;;;;;;;20.83;7.47;;;;;;;;;;5052334;28;20082;-73
2023/07/27 08:18:59;;;;;;;21.08;6.95;;;;;;;;;;5051172;28;20021;-73
2023/07/27 08:21:26;;;;;;;21.38;7.95;;;;;;;;;;5051307;28;20043;-71
2023/07/27 08:23:52;;;;;;;28.20;11.38;;;;;;;;;;5050836;28;20094;-72
2023/07/27 08:26:18;;;;;;;21.60;7.72;;;;;;;;;;5051241;28;20033;-72
2023/07/27 08:28:45;;;;;;;12.27;7.22;;;;;;;;;;5051063;28;20331;-77
2023/07/27 08:31:12;;;;;;;16.60;7.43;;;;;;;;;;5051549;28;20107;-72
2023/07/27 08:33:38;;;;;;;18.30;8.07;;;;;;;;;;5049070;28;20021;-72
2023/07/27 08:36:04;;;;;;;15.00;6.90;;;;;;;;;;5051185;28;20483;-72
2023/07/27 08:38:31;;;;;;;17.95;8.25;;;;;;;;;;5051126;28;20147;-73
2023/07/27 08:40:58;;;;;;;21.38;7.38;;;;;;;;;;5051505;28;20356;-73
2023/07/27 08:43:24;;;;;;;20.42;7.68;;;;;;;;;;5050835;28;20393;-73
2023/07/27 08:45:51;;;;;;;18.60;7.60;;;;;;;;;;5050232;28;20025;-73
2023/07/27 08:48:17;;;;;;;25.15;7.60;;;;;;;;;;5051218;28;20394;-74
2023/07/27 08:50:44;;;;;;;21.80;7.28;;;;;;;;;;5051334;28;20513;-72
2023/07/27 08:53:11;;;;;;;17.55;7.63;;;;;;;;;;5054473;28;20048;-75
2023/07/27 08:55:38;;;;;;;17.75;6.28;;;;;;;;;;5057319;28;20025;-73
2023/07/27 08:58:04;;;;;;;13.50;6.82;;;;;;;;;;5056404;28;20458;-72
2023/07/27 09:00:31;;;;;;;12.13;7.47;;;;;;;;;;5054796;28;20036;-73
2023/07/27 09:02:58;;;;;;;12.80;6.80;;;;;;;;;;5055093;28;20065;-74
2023/07/27 09:05:36;;;;;;;13.35;7.00;;;;;;;;;;5056218;28;20032;-76
2023/07/27 09:08:06;;;;;;;14.13;7.28;;;;;;;;;;5056156;28;20021;-75
2023/07/27 09:10:32;;;;;;;20.38;7.70;;;;;;;;;;5057427;28;20052;-77
2023/07/27 09:13:02;;;;;;;14.07;7.13;;;;;;;;;;5053838;28;20075;-74
2023/07/27 09:15:28;;;;;;;16.30;6.63;;;;;;;;;;5053127;28;20462;-72
2023/07/27 09:17:58;;;;;;;13.57;5.93;;;;;;;;;;5054367;28;20040;-74
2023/07/27 09:20:25;;;;;;;13.85;6.30;;;;;;;;;;5056956;28;20052;-74
2023/07/27 09:22:52;;;;;;;18.75;6.82;;;;;;;;;;5064804;28;20052;-73
2023/07/27 09:25:22;;;;;;;16.33;7.05;;;;;;;;;;5058249;28;20060;-73
2023/07/27 09:27:51;;;;;;;12.07;6.25;;;;;;;;;;5058034;28;20137;-72
2023/07/27 09:30:17;;;;;;;19.95;7.68;;;;;;;;;;5057673;28;20021;-73
2023/07/27 09:32:44;;;;;;;14.00;6.97;;;;;;;;;;5065396;28;20094;-76
2023/07/27 09:35:17;;;;;;;15.48;6.97;;;;;;;;;;5065357;28;20048;-72
2023/07/27 09:37:44;;;;;;;16.10;6.78;;;;;;;;;;5054142;28;20040;-73
2023/07/27 09:40:12;;;;;;;13.32;6.22;;;;;;;;;;5054174;28;20540;-73
2023/07/27 09:42:39;;;;;;;12.35;6.78;;;;;;;;;;5053824;28;20039;-72
2023/07/27 09:45:05;;;;;;;14.65;6.85;;;;;;;;;;5054241;28;20025;-76
2023/07/27 09:47:31;;;;;;;12.73;6.82;;;;;;;;;;5054248;28;20029;-74
2023/07/27 09:50:00;;;;;;;11.57;6.35;;;;;;;;;;5054344;28;20701;-75
2023/07/27 09:52:27;;;;;;;12.88;7.22;;;;;;;;;;5053949;28;20025;-73
2023/07/27 09:54:55;;;;;;;13.48;7.35;;;;;;;;;;5054052;28;20021;-74
2023/07/27 09:57:21;;;;;;;21.10;8.38;;;;;;;;;;5052781;28;20402;-73
2023/07/27 09:59:48;;;;;;;19.20;8.27;;;;;;;;;;5054225;28;20025;-72
2023/07/27 10:02:14;;;;;;;16.88;8.57;;;;;;;;;;5053859;28;20079;-71
2023/07/27 10:04:42;;;;;;;14.38;8.35;;;;;;;;;;5061422;28;20112;-74
2023/07/27 10:07:08;;;;;;;16.35;7.60;;;;;;;;;;5057336;28;20025;-73
2023/07/27 10:09:35;;;;;;;15.80;7.57;;;;;;;;;;5053521;28;20100;-72
2023/07/27 10:12:01;;;;;;;15.90;7.95;;;;;;;;;;5053359;28;20017;-72
2023/07/27 10:14:27;;;;;;;18.35;8.65;;;;;;;;;;5061899;28;20021;-72
2023/07/27 10:17:03;;;;;;;12.18;7.10;;;;;;;;;;5066560;28;20033;-72
2023/07/27 10:19:56;;;;;;;13.27;6.43;;;;;;;;;;5067750;28;20521;-74
2023/07/27 10:22:22;;;;;;;15.68;6.65;;;;;;;;;;5057540;28;20044;-73
2023/07/27 10:24:52;;;;;;;13.40;6.82;;;;;;;;;;5053254;28;20104;-72
2023/07/27 10:27:19;;;;;;;15.98;7.60;;;;;;;;;;5053434;28;20472;-72
2023/07/27 10:29:55;;;;;;;16.25;7.72;;;;;;;;;;5053197;28;20624;-73
2023/07/27 10:32:22;;;;;;;16.02;8.32;;;;;;;;;;5054842;28;20056;-73
2023/07/27 10:34:51;;;;;;;12.43;6.82;;;;;;;;;;5056549;28;20105;-74
2023/07/27 10:37:17;;;;;;;16.02;7.85;;;;;;;;;;5055220;28;20344;-72
2023/07/27 10:39:44;;;;;;;18.10;8.00;;;;;;;;;;5055483;28;20064;-72
2023/07/27 10:42:14;;;;;;;17.08;7.53;;;;;;;;;;5053327;28;20555;-74
2023/07/27 10:44:46;;;;;;;17.92;7.28;;;;;;;;;;5054170;28;20036;-75
2023/07/27 10:47:16;;;;;;;16.15;6.95;;;;;;;;;;5059837;28;20068;-74
2023/07/27 10:49:47;;;;;;;15.98;7.15;;;;;;;;;;5058780;28;20021;-74
2023/07/27 10:52:23;;;;;;;15.88;6.95;;;;;;;;;;5054024;28;20032;-73
2023/07/27 10:54:50;;;;;;;15.50;7.18;;;;;;;;;;5058678;28;20028;-72
2023/07/27 10:57:16;;;;;;;14.15;7.18;;;;;;;;;;5059459;28;20391;-73
2023/07/27 10:59:43;;;;;;;13.43;6.88;;;;;;;;;;5055605;28;20364;-73
2023/07/27 11:02:12;;;;;;;12.18;5.78;;;;;;;;;;5052519;28;20029;-72
2023/07/27 11:04:41;;;;;;;13.95;7.25;;;;;;;;;;5052651;28;20471;-73
2023/07/27 11:07:09;;;;;;;13.60;5.88;;;;;;;;;;5052531;28;20466;-72
2023/07/27 11:09:35;;;;;;;11.68;6.43;;;;;;;;;;5051194;28;20449;-73
2023/07/27 11:12:01;;;;;;;13.20;7.45;;;;;;;;;;5051281;28;20048;-73
2023/07/27 11:14:27;;;;;;;17.17;7.90;;;;;;;;;;5051333;28;20075;-73
2023/07/27 11:16:53;;;;;;;24.48;8.40;;;;;;;;;;5053773;28;20040;-72
2023/07/27 11:19:19;;;;;;;18.52;8.38;;;;;;;;;;5075281;28;20070;-72
2023/07/27 11:21:46;;;;;;;19.25;7.65;;;;;;;;;;5080472;28;20555;-72
2023/07/27 11:24:15;;;;;;;15.75;7.53;;;;;;;;;;5082008;28;20025;-73
2023/07/27 11:26:41;;;;;;;12.80;6.80;;;;;;;;;;5084055;28;20020;-72
2023/07/27 11:29:09;;;;;;;11.85;7.05;;;;;;;;;;5083839;28;20021;-73
2023/07/27 11:31:35;;;;;;;19.20;7.05;;;;;;;;;;5086201;28;20012;-73
2023/07/27 11:34:02;;;;;;;14.30;6.07;;;;;;;;;;5083888;28;20044;-73
2023/07/27 11:36:33;;;;;;;14.82;6.88;;;;;;;;;;5081523;28;20113;-74
2023/07/27 11:38:59;;;;;;;12.70;5.63;;;;;;;;;;5082763;28;20028;-72
2023/07/27 11:41:27;;;;;;;12.27;5.53;;;;;;;;;;5080062;28;20036;-74
2023/07/27 11:43:55;;;;;;;12.65;5.85;;;;;;;;;;5078703;28;20441;-73
2023/07/27 11:46:21;;;;;;;11.70;5.88;;;;;;;;;;5070024;28;20406;-73
2023/07/27 11:48:49;;;;;;;12.05;5.57;;;;;;;;;;5070647;28;20521;-73
2023/07/27 11:51:15;;;;;;;11.13;5.07;;;;;;;;;;5070893;28;20031;-72
2023/07/27 11:53:44;;;;;;;12.45;5.47;;;;;;;;;;5071707;28;20563;-72
2023/07/27 11:56:10;;;;;;;13.45;5.18;;;;;;;;;;5071064;28;20029;-73
2023/07/27 11:58:37;;;;;;;12.18;4.90;;;;;;;;;;5071054;28;20020;-74
2023/07/27 12:01:03;;;;;;;13.40;5.70;;;;;;;;;;5072559;28;20031;-73
2023/07/27 12:03:34;;;;;;;10.27;5.15;;;;;;;;;;5069497;28;20033;-75
2023/07/27 12:06:04;;;;;;;11.40;5.00;;;;;;;;;;5077824;28;20039;-73
2023/07/27 12:08:30;;;;;;;10.45;4.93;;;;;;;;;;5059177;28;20029;-74
2023/07/27 12:10:59;;;;;;;13.43;5.75;;;;;;;;;;5077038;28;20024;-75
2023/07/27 12:13:26;;;;;;;10.23;5.57;;;;;;;;;;5073299;28;20031;-71
2023/07/27 12:15:59;;;;;;;11.65;5.32;;;;;;;;;;5070622;28;20051;-76
2023/07/27 12:18:26;;;;;;;15.18;5.82;;;;;;;;;;5074441;28;20039;-74
2023/07/27 12:20:52;;;;;;;17.80;6.50;;;;;;;;;;5074449;28;20397;-73
2023/07/27 12:23:18;;;;;;;14.23;5.60;;;;;;;;;;5071747;28;20108;-72
2023/07/27 12:25:44;;;;;;;9.45;5.22;;;;;;;;;;5070758;28;20108;-74
2023/07/27 12:28:10;;;;;;;10.52;5.10;;;;;;;;;;5074218;28;20032;-72
2023/07/27 12:30:36;;;;;;;10.63;5.90;;;;;;;;;;5074254;28;20029;-72
2023/07/27 12:33:02;;;;;;;10.70;5.32;;;;;;;;;;5073501;28;20059;-72
2023/07/27 12:35:29;;;;;;;11.15;5.20;;;;;;;;;;5073634;28;20024;-72
2023/07/27 12:37:55;;;;;;;11.82;6.13;;;;;;;;;;5073942;28;20024;-73
2023/07/27 12:40:21;;;;;;;10.73;5.30;;;;;;;;;;5074176;28;20025;-73
2023/07/27 12:42:48;;;;;;;12.70;6.35;;;;;;;;;;5078047;28;20454;-73
2023/07/27 12:45:14;;;;;;;10.63;5.55;;;;;;;;;;5082964;28;20486;-73
2023/07/27 12:47:42;;;;;;;11.35;6.25;;;;;;;;;;5079129;28;20029;-73
2023/07/27 12:50:09;;;;;;;15.57;6.43;;;;;;;;;;5079442;28;20028;-73
2023/07/27 12:52:35;;;;;;;14.75;6.88;;;;;;;;;;5073351;28;20060;-73
2023/07/27 12:55:01;;;;;;;10.55;5.75;;;;;;;;;;5077511;28;20029;-73
2023/07/27 12:57:27;;;;;;;10.52;6.68;;;;;;;;;;5076799;28;20082;-73
2023/07/27 12:59:53;;;;;;;15.77;7.07;;;;;;;;;;5079289;28;20701;-73
2023/07/27 13:02:19;;;;;;;12.80;7.00;;;;;;;;;;5075706;28;20033;-72
2023/07/27 13:04:45;;;;;;;16.77;7.20;;;;;;;;;;5073639;28;20025;-73
2023/07/27 13:07:13;;;;;;;12.77;6.93;;;;;;;;;;5073381;28;20093;-73
2023/07/27 13:09:39;;;;;;;11.10;6.32;;;;;;;;;;5074379;28;20052;-74
2023/07/27 13:12:06;;;;;;;14.32;6.35;;;;;;;;;;5075284;28;20028;-75
2023/07/27 13:14:33;;;;;;;9.63;6.07;;;;;;;;;;5075481;28;20024;-73
2023/07/27 13:17:03;;;;;;;12.63;6.88;;;;;;;;;;5075650;28;20078;-74
2023/07/27 13:19:29;;;;;;;13.73;7.53;;;;;;;;;;5075249;28;20021;-73
2023/07/27 13:21:56;;;;;;;12.13;7.28;;;;;;;;;;5076497;28;20031;-74
2023/07/27 13:24:23;;;;;;;11.70;6.53;;;;;;;;;;5075019;28;20028;-73
2023/07/27 13:26:48;;;;;;;13.35;7.35;;;;;;;;;;5074415;28;20052;-74
2023/07/27 13:29:15;;;;;;;12.55;7.28;;;;;;;;;;5074253;28;20064;-71
2023/07/27 13:31:45;;;;;;;10.85;6.90;;;;;;;;;;5073302;28;20040;-73
2023/07/27 13:34:11;;;;;;;11.90;7.05;;;;;;;;;;5073113;28;20146;-73
2023/07/27 13:36:37;;;;;;;12.13;6.07;;;;;;;;;;5073987;28;20477;-73
2023/07/27 13:39:03;;;;;;;9.13;5.18;;;;;;;;;;5073157;28;20081;-72
2023/07/27 13:41:29;;;;;;;9.15;4.70;;;;;;;;;;5074335;28;20062;-73
2023/07/27 13:43:55;;;;;;;8.30;4.03;;;;;;;;;;5075294;28;20025;-74
2023/07/27 13:46:24;;;;;;;8.20;3.95;;;;;;;;;;5076463;28;20033;-74
2023/07/27 13:48:50;;;;;;;7.43;4.07;;;;;;;;;;5078877;28;20021;-73
2023/07/27 13:51:16;;;;;;;11.73;4.05;;;;;;;;;;5077981;28;20028;-73
2023/07/27 13:53:42;;;;;;;7.43;3.55;;;;;;;;;;5073044;28;20021;-73
2023/07/27 13:56:08;;;;;;;7.25;3.03;;;;;;;;;;5072558;28;20104;-73
2023/07/27 13:58:34;;;;;;;5.82;3.58;;;;;;;;;;5072899;28;20028;-75
2023/07/27 14:01:00;;;;;;;8.52;3.60;;;;;;;;;;5073001;28;20050;-73
2023/07/27 14:03:26;;;;;;;7.63;4.43;;;;;;;;;;5072340;28;20044;-72
2023/07/27 14:05:52;;;;;;;6.53;3.78;;;;;;;;;;5072776;28;20051;-72
2023/07/27 14:08:18;;;;;;;9.52;5.13;;;;;;;;;;5072748;28;20100;-72
2023/07/27 14:10:44;;;;;;;11.45;4.25;;;;;;;;;;5074389;28;20086;-74
2023/07/27 14:13:10;;;;;;;6.50;3.70;;;;;;;;;;5075788;28;20024;-74
2023/07/27 14:15:36;;;;;;;10.52;3.47;;;;;;;;;;5074607;28;20146;-72
2023/07/27 14:18:02;;;;;;;9.93;3.50;;;;;;;;;;5075258;28;20044;-73
2023/07/27 14:20:28;;;;;;;9.30;4.20;;;;;;;;;;5067107;28;20162;-75
2023/07/27 14:22:54;;;;;;;11.23;4.05;;;;;;;;;;5072829;28;20112;-72
2023/07/27 14:25:20;;;;;;;6.32;3.70;;;;;;;;;;5072408;28;20029;-73
2023/07/27 14:27:46;;;;;;;6.63;3.85;;;;;;;;;;5072102;28;20032;-73